<?xml version="1.0" encoding="UTF-8" standalone="no" ?>
<gpx xmlns="http://www.topografix.com/GPX/1/1" xmlns:xsi="http://www.w3.org/2001/XMLSchema-instance" xsi:schemaLocation="http://www.topografix.com/GPX/1/1 http://www.topografix.com/GPX/1/1/gpx.xsd" version="1.1" creator="VisuGPX - https://www.visugpx.com">
  <metadata>
    <name>Paissy 02 8.5 Km Fond de Mourson test</name>
  </metadata>
  <trk>
    <name><![CDATA[Paissy 02 8.5 Km Fond de Mourson test]]></name>
    <extensions>
      <line xmlns="http://www.topografix.com/GPX/gpx_style/0/2">
        <color>0000FF</color>
        <width>4</width>
      </line>
    </extensions>
    <trkseg>
      <trkpt lat="49.4241" lon="3.70864">
        <ele>162</ele>
        <time>2021-05-01T16:07:03+02:00</time>
      </trkpt>
      <trkpt lat="49.42243" lon="3.7076">
        <ele>154</ele>
        <time>2021-05-01T16:07:08+02:00</time>
      </trkpt>
      <trkpt lat="49.42144" lon="3.70401">
        <ele>152</ele>
        <time>2021-05-01T16:07:13+02:00</time>
      </trkpt>
      <trkpt lat="49.42024" lon="3.70302">
        <ele>158</ele>
        <time>2021-05-01T16:07:18+02:00</time>
      </trkpt>
      <trkpt lat="49.41962" lon="3.701">
        <ele>152</ele>
        <time>2021-05-01T16:07:23+02:00</time>
      </trkpt>
      <trkpt lat="49.41881" lon="3.70019">
        <ele>154</ele>
        <time>2021-05-01T16:07:28+02:00</time>
      </trkpt>
      <trkpt lat="49.41845" lon="3.6983">
        <ele>129</ele>
        <time>2021-05-01T16:07:33+02:00</time>
      </trkpt>
      <trkpt lat="49.41924" lon="3.69605">
        <ele>106</ele>
        <time>2021-05-01T16:07:38+02:00</time>
      </trkpt>
      <trkpt lat="49.41989" lon="3.69529">
        <ele>100</ele>
        <time>2021-05-01T16:07:43+02:00</time>
      </trkpt>
      <trkpt lat="49.42094" lon="3.69484">
        <ele>98</ele>
        <time>2021-05-01T16:07:48+02:00</time>
      </trkpt>
      <trkpt lat="49.4191" lon="3.69274">
        <ele>91</ele>
        <time>2021-05-01T16:07:53+02:00</time>
      </trkpt>
      <trkpt lat="49.41729" lon="3.69101">
        <ele>86</ele>
        <time>2021-05-01T16:07:58+02:00</time>
      </trkpt>
      <trkpt lat="49.41669" lon="3.69061">
        <ele>85</ele>
        <time>2021-05-01T16:08:03+02:00</time>
      </trkpt>
      <trkpt lat="49.41655" lon="3.69044">
        <ele>85</ele>
        <time>2021-05-01T16:08:08+02:00</time>
      </trkpt>
      <trkpt lat="49.41646" lon="3.69016">
        <ele>84</ele>
        <time>2021-05-01T16:08:13+02:00</time>
      </trkpt>
      <trkpt lat="49.41641" lon="3.68953">
        <ele>82</ele>
        <time>2021-05-01T16:08:18+02:00</time>
      </trkpt>
      <trkpt lat="49.41453" lon="3.68754">
        <ele>78</ele>
        <time>2021-05-01T16:08:23+02:00</time>
      </trkpt>
      <trkpt lat="49.41569" lon="3.68594">
        <ele>72</ele>
        <time>2021-05-01T16:08:28+02:00</time>
      </trkpt>
      <trkpt lat="49.41651" lon="3.68475">
        <ele>71</ele>
        <time>2021-05-01T16:08:33+02:00</time>
      </trkpt>
      <trkpt lat="49.41635" lon="3.68362">
        <ele>69</ele>
        <time>2021-05-01T16:08:38+02:00</time>
      </trkpt>
      <trkpt lat="49.41822" lon="3.68173">
        <ele>76</ele>
        <time>2021-05-01T16:08:43+02:00</time>
      </trkpt>
      <trkpt lat="49.41881" lon="3.68393">
        <ele>77</ele>
        <time>2021-05-01T16:08:48+02:00</time>
      </trkpt>
      <trkpt lat="49.41969" lon="3.68531">
        <ele>82</ele>
        <time>2021-05-01T16:08:53+02:00</time>
      </trkpt>
      <trkpt lat="49.4201" lon="3.68568">
        <ele>84</ele>
        <time>2021-05-01T16:08:58+02:00</time>
      </trkpt>
      <trkpt lat="49.42036" lon="3.68535">
        <ele>85</ele>
        <time>2021-05-01T16:09:03+02:00</time>
      </trkpt>
      <trkpt lat="49.42072" lon="3.68557">
        <ele>87</ele>
        <time>2021-05-01T16:09:08+02:00</time>
      </trkpt>
      <trkpt lat="49.42103" lon="3.68565">
        <ele>89</ele>
        <time>2021-05-01T16:09:13+02:00</time>
      </trkpt>
      <trkpt lat="49.42205" lon="3.68764">
        <ele>89</ele>
        <time>2021-05-01T16:09:18+02:00</time>
      </trkpt>
      <trkpt lat="49.42335" lon="3.68799">
        <ele>92</ele>
        <time>2021-05-01T16:09:23+02:00</time>
      </trkpt>
      <trkpt lat="49.42372" lon="3.68816">
        <ele>92</ele>
        <time>2021-05-01T16:09:28+02:00</time>
      </trkpt>
      <trkpt lat="49.42428" lon="3.68877">
        <ele>93</ele>
        <time>2021-05-01T16:09:33+02:00</time>
      </trkpt>
      <trkpt lat="49.42471" lon="3.68924">
        <ele>94</ele>
        <time>2021-05-01T16:09:38+02:00</time>
      </trkpt>
      <trkpt lat="49.42562" lon="3.68993">
        <ele>95</ele>
        <time>2021-05-01T16:09:43+02:00</time>
      </trkpt>
      <trkpt lat="49.42658" lon="3.69042">
        <ele>96</ele>
        <time>2021-05-01T16:09:48+02:00</time>
      </trkpt>
      <trkpt lat="49.42627" lon="3.69107">
        <ele>95</ele>
        <time>2021-05-01T16:09:53+02:00</time>
      </trkpt>
      <trkpt lat="49.42576" lon="3.6917">
        <ele>95</ele>
        <time>2021-05-01T16:09:58+02:00</time>
      </trkpt>
      <trkpt lat="49.4255" lon="3.69227">
        <ele>96</ele>
        <time>2021-05-01T16:10:03+02:00</time>
      </trkpt>
      <trkpt lat="49.42521" lon="3.69262">
        <ele>97</ele>
        <time>2021-05-01T16:10:08+02:00</time>
      </trkpt>
      <trkpt lat="49.42561" lon="3.6928">
        <ele>98</ele>
        <time>2021-05-01T16:10:13+02:00</time>
      </trkpt>
      <trkpt lat="49.42628" lon="3.69348">
        <ele>101</ele>
        <time>2021-05-01T16:10:18+02:00</time>
      </trkpt>
      <trkpt lat="49.42671" lon="3.69477">
        <ele>103</ele>
        <time>2021-05-01T16:10:23+02:00</time>
      </trkpt>
      <trkpt lat="49.42738" lon="3.69576">
        <ele>104</ele>
        <time>2021-05-01T16:10:28+02:00</time>
      </trkpt>
      <trkpt lat="49.42739" lon="3.69636">
        <ele>107</ele>
        <time>2021-05-01T16:10:33+02:00</time>
      </trkpt>
      <trkpt lat="49.42805" lon="3.69781">
        <ele>112</ele>
        <time>2021-05-01T16:10:38+02:00</time>
      </trkpt>
      <trkpt lat="49.42853" lon="3.69842">
        <ele>114</ele>
        <time>2021-05-01T16:10:43+02:00</time>
      </trkpt>
      <trkpt lat="49.42892" lon="3.69872">
        <ele>116</ele>
        <time>2021-05-01T16:10:48+02:00</time>
      </trkpt>
      <trkpt lat="49.42945" lon="3.69884">
        <ele>114</ele>
        <time>2021-05-01T16:10:53+02:00</time>
      </trkpt>
      <trkpt lat="49.42988" lon="3.6988">
        <ele>110</ele>
        <time>2021-05-01T16:10:58+02:00</time>
      </trkpt>
      <trkpt lat="49.43017" lon="3.69834">
        <ele>108</ele>
        <time>2021-05-01T16:11:03+02:00</time>
      </trkpt>
      <trkpt lat="49.43195" lon="3.70192">
        <ele>129</ele>
        <time>2021-05-01T16:11:08+02:00</time>
      </trkpt>
      <trkpt lat="49.43224" lon="3.70165">
        <ele>126</ele>
        <time>2021-05-01T16:11:13+02:00</time>
      </trkpt>
      <trkpt lat="49.43342" lon="3.7035">
        <ele>148</ele>
        <time>2021-05-01T16:11:18+02:00</time>
      </trkpt>
      <trkpt lat="49.43509" lon="3.70699">
        <ele>174</ele>
        <time>2021-05-01T16:11:23+02:00</time>
      </trkpt>
      <trkpt lat="49.43575" lon="3.7078">
        <ele>175</ele>
        <time>2021-05-01T16:11:28+02:00</time>
      </trkpt>
      <trkpt lat="49.43572" lon="3.7078">
        <ele>175</ele>
        <time>2021-05-01T16:11:33+02:00</time>
      </trkpt>
      <trkpt lat="49.43506" lon="3.7081">
        <ele>176</ele>
        <time>2021-05-01T16:11:38+02:00</time>
      </trkpt>
      <trkpt lat="49.43454" lon="3.70771">
        <ele>178</ele>
        <time>2021-05-01T16:11:43+02:00</time>
      </trkpt>
      <trkpt lat="49.43366" lon="3.70642">
        <ele>178</ele>
        <time>2021-05-01T16:11:48+02:00</time>
      </trkpt>
      <trkpt lat="49.43275" lon="3.70549">
        <ele>177</ele>
        <time>2021-05-01T16:11:53+02:00</time>
      </trkpt>
      <trkpt lat="49.43072" lon="3.70393">
        <ele>173</ele>
        <time>2021-05-01T16:11:58+02:00</time>
      </trkpt>
      <trkpt lat="49.42989" lon="3.70347">
        <ele>174</ele>
        <time>2021-05-01T16:12:03+02:00</time>
      </trkpt>
      <trkpt lat="49.4289" lon="3.70246">
        <ele>172</ele>
        <time>2021-05-01T16:12:08+02:00</time>
      </trkpt>
      <trkpt lat="49.42823" lon="3.70215">
        <ele>172</ele>
        <time>2021-05-01T16:12:13+02:00</time>
      </trkpt>
      <trkpt lat="49.42648" lon="3.70117">
        <ele>168</ele>
        <time>2021-05-01T16:12:18+02:00</time>
      </trkpt>
      <trkpt lat="49.42551" lon="3.7013">
        <ele>163</ele>
        <time>2021-05-01T16:12:23+02:00</time>
      </trkpt>
      <trkpt lat="49.42498" lon="3.69957">
        <ele>153</ele>
        <time>2021-05-01T16:12:28+02:00</time>
      </trkpt>
      <trkpt lat="49.42468" lon="3.70305">
        <ele>146</ele>
        <time>2021-05-01T16:12:33+02:00</time>
      </trkpt>
      <trkpt lat="49.42472" lon="3.70515">
        <ele>155</ele>
        <time>2021-05-01T16:12:38+02:00</time>
      </trkpt>
      <trkpt lat="49.42407" lon="3.70609">
        <ele>148</ele>
        <time>2021-05-01T16:12:43+02:00</time>
      </trkpt>
      <trkpt lat="49.42412" lon="3.7077">
        <ele>157</ele>
        <time>2021-05-01T16:12:48+02:00</time>
      </trkpt>
      <trkpt lat="49.42449" lon="3.70981">
        <ele>173</ele>
        <time>2021-05-01T16:12:53+02:00</time>
      </trkpt>
      <trkpt lat="49.42318" lon="3.70881">
        <ele>166</ele>
        <time>2021-05-01T16:12:58+02:00</time>
      </trkpt>
      <trkpt lat="49.42417" lon="3.70884">
        <ele>164</ele>
        <time>2021-05-01T16:13:03+02:00</time>
      </trkpt>
    </trkseg>
  </trk>
</gpx>